LFOE 171900Z AUTO 16006KT 4900 BR FEW003 SCT210 BKN220 05/05 Q1024 TEMPO 0800 BCFG VV///

ElémentsDécodage
LFOE Station météo située sur l'aérodrome de EVREUX Fauville
171900Z émis le 17 du mois à 19h00 UTC
AUTO Bulletin édité par un automate
16006KT vent du 160°, 06 noeuds
4900 visibilité horizontale de 4900 mètres
BR brume
FEW003 nuages rares (1/8 à 2/8) à 300 pieds
SCT210 nuages épars (3/8 à 4/8) à 21000 pieds
BKN220 nuages morcelés (5/8 à 7/8) à 22000 pieds
05/05 température 05°C, point de rosée 05°C
 soit une humidité relative de 100%
Q1024 la pression au niveau de la mer (QNH) est de 1024 hPa
TEMPO fluctuation temporaire prévue
0800 visibilité horizontale de 800 mètres
BCFG bancs de brouillard
VV/// Visibilité verticale non disponible, le ciel n'est pas visible